Time;durP1;ratioP1;P1;durP2;ratioP2;P2;SDS_P1;SDS_P2;PMS_P1;PMS_P2;Temp;Humidity;BMP_temperature;BMP_pressure;BME280_temperature;BME280_humidity;BME280_pressure;Samples;Min_cycle;Max_cycle;Signal;HPM_P1;HPM_P2
2023/12/01 00:02:21;;;;;;;3.55;1.42;;;16.90;1.00;;;;;;5002523;28;20049;-77
2023/12/01 00:04:48;;;;;;;4.72;1.90;;;17.10;1.00;;;;;;4998088;28;20512;-77
2023/12/01 00:07:16;;;;;;;3.55;1.58;;;17.10;1.00;;;;;;5004801;28;20073;-78
2023/12/01 00:09:43;;;;;;;4.70;1.95;;;17.00;1.00;;;;;;5001333;28;20536;-79
2023/12/01 00:12:11;;;;;;;6.15;1.70;;;16.90;1.00;;;;;;5006097;28;20501;-78
2023/12/01 00:14:40;;;;;;;4.97;1.95;;;16.80;1.00;;;;;;4981957;28;20051;-77
2023/12/01 00:17:08;;;;;;;7.03;1.75;;;16.80;1.00;;;;;;4998091;28;20042;-78
2023/12/01 00:19:40;;;;;;;9.02;2.25;;;16.80;1.00;;;;;;5005730;28;20049;-77
2023/12/01 00:22:07;;;;;;;5.25;1.80;;;16.90;1.00;;;;;;5001500;28;20557;-76
2023/12/01 00:24:35;;;;;;;3.55;1.70;;;16.90;1.00;;;;;;5002569;28;20050;-79
2023/12/01 00:27:02;;;;;;;5.97;2.20;;;17.00;1.00;;;;;;5001435;28;20073;-77
2023/12/01 00:29:30;;;;;;;4.32;1.50;;;17.00;1.00;;;;;;5000290;28;20038;-78
2023/12/01 00:31:58;;;;;;;5.35;1.83;;;17.10;1.00;;;;;;4983850;28;20054;-77
2023/12/01 00:34:25;;;;;;;7.05;2.05;;;17.00;1.00;;;;;;4984886;28;20034;-77
2023/12/01 00:36:55;;;;;;;6.03;1.90;;;17.00;1.00;;;;;;4982400;28;20042;-78
2023/12/01 00:39:22;;;;;;;4.72;1.75;;;17.00;1.00;;;;;;5001992;28;20064;-77
2023/12/01 00:41:50;;;;;;;4.13;1.80;;;17.10;1.00;;;;;;4999759;28;20096;-78
2023/12/01 00:44:18;;;;;;;5.65;1.73;;;17.10;1.00;;;;;;4998839;28;20053;-77
2023/12/01 00:46:45;;;;;;;3.17;1.52;;;17.10;1.00;;;;;;4999916;28;20049;-79
2023/12/01 00:49:13;;;;;;;4.72;1.70;;;17.00;1.00;;;;;;5001937;28;20041;-78
2023/12/01 00:51:43;;;;;;;5.07;2.05;;;17.00;1.00;;;;;;4982903;28;20553;-78
2023/12/01 00:54:12;;;;;;;5.90;2.13;;;17.00;1.00;;;;;;4999203;28;20030;-79
2023/12/01 00:56:40;;;;;;;6.10;1.50;;;17.00;1.00;;;;;;4984225;28;20149;-77
2023/12/01 00:59:07;;;;;;;5.20;1.63;;;17.00;1.00;;;;;;5001812;28;20052;-78
2023/12/01 01:01:35;;;;;;;5.35;1.50;;;17.10;1.00;;;;;;4999984;28;20049;-79
2023/12/01 01:04:03;;;;;;;5.60;2.20;;;17.10;1.00;;;;;;4983299;28;20073;-78
2023/12/01 01:06:30;;;;;;;6.00;2.00;;;17.10;1.00;;;;;;4983881;28;20137;-79
2023/12/01 01:08:59;;;;;;;18.95;12.70;;;17.10;1.00;;;;;;5001654;28;20049;-78
2023/12/01 01:11:28;;;;;;;7.70;2.50;;;17.00;1.00;;;;;;5000326;28;20084;-77
2023/12/01 01:13:55;;;;;;;7.47;2.40;;;17.00;1.00;;;;;;5000252;28;20569;-76
2023/12/01 01:16:23;;;;;;;5.50;1.75;;;17.00;1.00;;;;;;4999777;28;20572;-78
2023/12/01 01:18:50;;;;;;;5.22;1.73;;;17.00;1.00;;;;;;4985557;28;20038;-76
2023/12/01 01:21:18;;;;;;;4.57;1.23;;;17.00;1.00;;;;;;4984264;28;20062;-78
2023/12/01 01:23:46;;;;;;;6.38;1.70;;;17.10;1.00;;;;;;4983270;28;20081;-79
2023/12/01 01:26:15;;;;;;;6.13;1.63;;;17.10;1.00;;;;;;5000171;28;20532;-78
2023/12/01 01:28:44;;;;;;;5.60;1.70;;;17.10;1.00;;;;;;4999254;28;20146;-79
2023/12/01 01:31:12;;;;;;;4.03;1.63;;;17.10;1.00;;;;;;4998676;28;20039;-77
2023/12/01 01:33:39;;;;;;;3.75;1.63;;;17.10;1.00;;;;;;5000196;28;20517;-79
2023/12/01 01:36:08;;;;;;;8.32;2.78;;;17.30;1.00;;;;;;4982255;28;20441;-78
2023/12/01 01:38:37;;;;;;;3.15;1.48;;;17.30;1.00;;;;;;4999791;28;20504;-78
2023/12/01 01:41:05;;;;;;;5.47;1.63;;;17.30;1.00;;;;;;4997835;28;20069;-79
2023/12/01 01:43:32;;;;;;;4.97;1.48;;;17.50;1.00;;;;;;4980939;28;20055;-79
2023/12/01 01:46:05;;;;;;;5.50;1.77;;;17.60;1.00;;;;;;4982564;28;20050;-79
2023/12/01 01:48:34;;;;;;;5.68;1.85;;;17.60;1.00;;;;;;4980802;28;20070;-78
2023/12/01 01:51:02;;;;;;;4.82;1.73;;;17.60;99.90;;;;;;5000663;28;20102;-80
2023/12/01 01:53:31;;;;;;;4.57;1.70;;;17.60;99.90;;;;;;4982861;28;20050;-80
2023/12/01 01:55:59;;;;;;;3.08;1.60;;;17.60;99.90;;;;;;4985447;28;20061;-78
2023/12/01 01:58:27;;;;;;;5.35;1.80;;;17.60;99.90;;;;;;4986909;28;20077;-79
2023/12/01 02:00:56;;;;;;;4.65;1.80;;;17.60;99.90;;;;;;4978183;28;20526;-78
2023/12/01 02:03:25;;;;;;;5.47;1.70;;;17.60;99.90;;;;;;4981524;28;20120;-78
2023/12/01 02:05:53;;;;;;;8.18;1.92;;;17.70;99.90;;;;;;4999353;28;20112;-77
2023/12/01 02:08:25;;;;;;;5.60;1.67;;;17.80;99.90;;;;;;5003359;28;20043;-79
2023/12/01 02:10:54;;;;;;;7.20;1.60;;;17.70;99.90;;;;;;4994267;28;20438;-78
2023/12/01 02:13:22;;;;;;;5.25;2.00;;;17.60;99.90;;;;;;4994258;28;20045;-78
2023/12/01 02:15:49;;;;;;;4.38;1.90;;;17.60;99.90;;;;;;4997275;28;20050;-78
2023/12/01 02:18:26;;;;;;;5.82;1.80;;;17.50;99.90;;;;;;4990028;28;20046;-80
2023/12/01 02:20:55;;;;;;;6.07;1.80;;;17.60;99.90;;;;;;4999953;28;20097;-77
2023/12/01 02:23:25;;;;;;;7.90;1.73;;;17.70;99.90;;;;;;4981496;28;20062;-78
2023/12/01 02:25:52;;;;;;;6.20;2.03;;;17.70;99.90;;;;;;5001833;28;20056;-78
2023/12/01 02:28:20;;;;;;;18.45;8.32;;;17.80;99.90;;;;;;4998752;28;20066;-80
2023/12/01 02:30:50;;;;;;;9.32;4.03;;;17.80;99.90;;;;;;4999890;28;20120;-77
2023/12/01 02:33:19;;;;;;;5.57;1.95;;;17.80;99.90;;;;;;4983248;28;20078;-79
2023/12/01 02:35:48;;;;;;;6.47;2.00;;;17.80;99.90;;;;;;4999018;28;20089;-77
2023/12/01 02:38:16;;;;;;;5.00;1.92;;;17.80;99.90;;;;;;4998610;28;20550;-77
2023/12/01 02:40:49;;;;;;;5.75;2.05;;;17.70;99.90;;;;;;4982001;28;20080;-78
2023/12/01 02:43:17;;;;;;;9.25;2.20;;;17.80;99.90;;;;;;5004360;28;20058;-77
2023/12/01 02:45:45;;;;;;;4.68;1.70;;;17.70;99.90;;;;;;4985963;28;20068;-78
2023/12/01 02:48:12;;;;;;;8.93;2.20;;;17.70;99.90;;;;;;4982661;28;20577;-79
2023/12/01 02:50:40;;;;;;;5.97;1.70;;;17.70;99.90;;;;;;5003321;28;20044;-80
2023/12/01 02:53:08;;;;;;;5.55;1.85;;;17.60;99.90;;;;;;4983449;28;20050;-77
2023/12/01 02:55:35;;;;;;;5.32;1.75;;;17.50;99.90;;;;;;4986196;28;20092;-79
2023/12/01 02:58:04;;;;;;;6.40;1.60;;;17.60;99.90;;;;;;4980511;28;20038;-79
2023/12/01 03:00:32;;;;;;;5.47;2.35;;;17.60;99.90;;;;;;4999037;28;20120;-78
2023/12/01 03:03:00;;;;;;;8.57;2.08;;;17.60;99.90;;;;;;4986693;28;20070;-77
2023/12/01 03:05:28;;;;;;;8.90;1.73;;;17.70;99.90;;;;;;5003110;28;20058;-77
2023/12/01 03:07:55;;;;;;;5.63;2.00;;;17.70;99.90;;;;;;5004850;28;20096;-78
2023/12/01 03:10:24;;;;;;;6.25;1.88;;;17.80;99.90;;;;;;4985422;28;20590;-78
2023/12/01 03:12:52;;;;;;;6.20;1.60;;;17.90;99.90;;;;;;5001983;28;20039;-79
2023/12/01 03:15:21;;;;;;;9.30;2.05;;;17.90;99.90;;;;;;5001989;28;20034;-78
2023/12/01 03:17:49;;;;;;;7.38;1.70;;;17.80;99.90;;;;;;4964042;28;20042;-78
2023/12/01 03:20:17;;;;;;;7.35;1.77;;;17.70;99.90;;;;;;4965693;28;20051;-80
2023/12/01 03:22:47;;;;;;;4.90;1.83;;;17.60;99.90;;;;;;4950249;28;20538;-79
2023/12/01 03:25:14;;;;;;;6.63;1.88;;;17.60;99.90;;;;;;4962643;28;20035;-79
2023/12/01 03:27:43;;;;;;;5.65;1.80;;;17.60;99.90;;;;;;4962763;28;20039;-77
2023/12/01 03:30:14;;;;;;;6.15;1.92;;;17.60;99.90;;;;;;4965288;28;20090;-77
2023/12/01 03:32:45;;;;;;;5.15;1.73;;;17.70;99.90;;;;;;4962554;28;20287;-78
2023/12/01 03:35:14;;;;;;;5.50;2.47;;;17.70;99.90;;;;;;4961903;28;20042;-77
2023/12/01 03:37:42;;;;;;;9.20;2.88;;;17.70;99.90;;;;;;4962777;28;20039;-78
2023/12/01 03:40:12;;;;;;;7.03;2.72;;;17.60;99.90;;;;;;4965412;28;20046;-76
2023/12/01 03:42:44;;;;;;;8.00;3.13;;;17.60;99.90;;;;;;4946475;28;20047;-79
2023/12/01 03:45:13;;;;;;;7.40;2.70;;;17.70;99.90;;;;;;4963515;28;20128;-79
2023/12/01 03:47:41;;;;;;;9.55;2.97;;;17.70;99.90;;;;;;4964277;28;20436;-77
2023/12/01 03:50:12;;;;;;;8.55;3.33;;;17.70;99.90;;;;;;4963403;28;20519;-78
2023/12/01 03:52:41;;;;;;;9.88;4.13;;;17.60;99.90;;;;;;4949459;28;20133;-78
2023/12/01 03:55:10;;;;;;;6.32;2.80;;;17.70;99.90;;;;;;4964887;28;20043;-78
2023/12/01 03:57:38;;;;;;;6.82;3.45;;;17.70;99.90;;;;;;4965259;28;20039;-77
2023/12/01 04:00:08;;;;;;;12.00;3.90;;;17.70;99.90;;;;;;4962985;28;20039;-78
2023/12/01 04:02:43;;;;;;;9.60;4.38;;;17.60;99.90;;;;;;4947911;28;20050;-80
2023/12/01 04:05:17;;;;;;;7.50;3.38;;;17.60;99.90;;;;;;4961841;28;20043;-78
2023/12/01 04:07:46;;;;;;;7.90;2.70;;;17.70;99.90;;;;;;4946423;28;20062;-79
2023/12/01 04:10:14;;;;;;;6.57;2.78;;;17.70;99.90;;;;;;4961941;28;20319;-77
2023/12/01 04:12:44;;;;;;;6.25;2.50;;;17.70;99.90;;;;;;4946253;28;20047;-79
2023/12/01 04:15:15;;;;;;;8.95;3.40;;;17.80;99.90;;;;;;4944876;28;20039;-77
2023/12/01 04:17:46;;;;;;;8.80;2.38;;;17.80;99.90;;;;;;5001927;28;20046;-76
2023/12/01 04:20:25;;;;;;;6.20;2.40;;;17.80;99.90;;;;;;5001096;28;20038;-79
2023/12/01 04:22:54;;;;;;;6.63;2.72;;;17.80;99.90;;;;;;5001378;28;20047;-78
2023/12/01 04:25:22;;;;;;;4.72;2.10;;;17.70;99.90;;;;;;5001622;28;20050;-77
2023/12/01 04:27:51;;;;;;;6.18;2.10;;;17.80;99.90;;;;;;4983164;28;20061;-76
2023/12/01 04:30:20;;;;;;;6.75;1.90;;;17.70;99.90;;;;;;5002130;28;20477;-78
2023/12/01 04:32:52;;;;;;;5.53;1.80;;;17.80;99.90;;;;;;5000969;28;20037;-78
2023/12/01 04:35:22;;;;;;;4.78;2.05;;;17.90;99.90;;;;;;5001024;28;20442;-76
2023/12/01 04:37:49;;;;;;;7.60;1.70;;;17.90;99.90;;;;;;5002744;28;20096;-79
2023/12/01 04:40:18;;;;;;;6.50;2.10;;;18.00;99.90;;;;;;5001907;28;20073;-78
2023/12/01 04:42:47;;;;;;;6.45;2.13;;;18.10;99.90;;;;;;5000836;28;20049;-79
2023/12/01 04:45:16;;;;;;;6.25;2.05;;;18.10;99.90;;;;;;5005236;28;20042;-79
2023/12/01 04:47:50;;;;;;;6.70;2.15;;;18.10;99.90;;;;;;4985828;28;20053;-79
2023/12/01 04:50:18;;;;;;;4.10;1.70;;;18.00;99.90;;;;;;5004001;28;20114;-80
2023/12/01 04:52:52;;;;;;;6.55;2.30;;;18.00;99.90;;;;;;5000686;28;20494;-78
2023/12/01 04:55:21;;;;;;;7.95;2.13;;;18.10;99.90;;;;;;5000562;28;20093;-81
2023/12/01 04:57:49;;;;;;;8.07;1.95;;;18.20;99.90;;;;;;5002544;28;20049;-78
2023/12/01 05:00:21;;;;;;;4.97;2.00;;;18.30;99.90;;;;;;5001991;28;20050;-78
2023/12/01 05:02:51;;;;;;;7.35;2.00;;;18.20;99.90;;;;;;5000298;28;20053;-77
2023/12/01 05:05:19;;;;;;;5.75;2.60;;;18.20;99.90;;;;;;5003162;28;20443;-78
2023/12/01 05:07:49;;;;;;;7.30;2.47;;;18.20;99.90;;;;;;4985100;28;20470;-79
2023/12/01 05:10:20;;;;;;;5.13;2.20;;;18.10;99.90;;;;;;5001781;28;20486;-79
2023/12/01 05:12:50;;;;;;;8.32;2.78;;;18.20;99.90;;;;;;5001535;28;20501;-77
2023/12/01 05:15:18;;;;;;;9.05;3.00;;;18.20;99.90;;;;;;5003539;28;20567;-79
2023/12/01 05:17:47;;;;;;;6.43;2.50;;;18.30;99.90;;;;;;5001081;28;20141;-78
2023/12/01 05:20:18;;;;;;;6.85;2.30;;;18.30;99.90;;;;;;5005017;28;20038;-79
2023/12/01 05:22:47;;;;;;;9.27;2.53;;;18.20;99.90;;;;;;5004612;28;20096;-81
2023/12/01 05:25:15;;;;;;;8.15;2.50;;;18.00;99.90;;;;;;5004641;28;20125;-79
2023/12/01 05:27:46;;;;;;;7.50;2.95;;;18.00;99.90;;;;;;5003599;28;20043;-77
2023/12/01 05:30:15;;;;;;;8.73;3.03;;;18.00;99.90;;;;;;5003212;28;20969;-78
2023/12/01 05:32:44;;;;;;;9.68;3.35;;;18.00;99.90;;;;;;4988541;28;20042;-78
2023/12/01 05:35:12;;;;;;;7.88;2.70;;;18.00;99.90;;;;;;4986208;28;20105;-78
2023/12/01 05:37:41;;;;;;;8.65;3.03;;;17.90;99.90;;;;;;5004615;28;20038;-79
2023/12/01 05:40:14;;;;;;;7.75;2.55;;;17.90;99.90;;;;;;5006322;28;20049;-78
2023/12/01 05:42:43;;;;;;;8.07;3.53;;;17.80;99.90;;;;;;5001793;28;20046;-79
2023/12/01 05:45:13;;;;;;;6.57;2.67;;;17.80;99.90;;;;;;5003541;28;20133;-77
2023/12/01 05:47:43;;;;;;;7.72;3.13;;;17.80;99.90;;;;;;5000474;28;20085;-78
2023/12/01 05:50:15;;;;;;;7.70;2.67;;;17.80;99.90;;;;;;5000966;28;20096;-78
2023/12/01 05:52:43;;;;;;;10.45;3.67;;;17.80;99.90;;;;;;5002795;28;20406;-77
2023/12/01 05:55:15;;;;;;;9.60;3.55;;;17.70;99.90;;;;;;4985018;28;20049;-79
2023/12/01 05:57:44;;;;;;;9.25;3.17;;;17.80;99.90;;;;;;5000664;28;20069;-78
2023/12/01 06:00:17;;;;;;;9.75;3.42;;;17.80;99.90;;;;;;5002133;28;20112;-78
2023/12/01 06:02:46;;;;;;;9.82;3.53;;;17.70;99.90;;;;;;5002781;28;20132;-78
2023/12/01 06:05:13;;;;;;;14.02;5.18;;;17.70;99.90;;;;;;5005687;28;20106;-78
2023/12/01 06:07:43;;;;;;;12.70;4.22;;;17.70;99.90;;;;;;5018144;28;20038;-77
2023/12/01 06:10:11;;;;;;;11.73;4.13;;;17.70;99.90;;;;;;5022571;28;20026;-79
2023/12/01 06:12:39;;;;;;;11.48;4.15;;;17.70;99.90;;;;;;5020252;28;20068;-77
2023/12/01 06:15:09;;;;;;;6.88;2.92;;;17.80;99.90;;;;;;5022239;28;20157;-77
2023/12/01 06:17:38;;;;;;;7.75;3.30;;;17.70;99.90;;;;;;5016743;28;20069;-77
2023/12/01 06:20:16;;;;;;;9.70;2.88;;;17.70;99.90;;;;;;5018108;28;20057;-78
2023/12/01 06:22:46;;;;;;;7.20;3.03;;;17.70;99.90;;;;;;5020509;28;20046;-79
2023/12/01 06:25:13;;;;;;;7.57;3.55;;;17.80;99.90;;;;;;5020452;28;20128;-78
2023/12/01 06:27:42;;;;;;;7.78;3.97;;;17.80;99.90;;;;;;5005376;28;20053;-79
2023/12/01 06:30:11;;;;;;;9.07;4.32;;;17.80;99.90;;;;;;5003814;28;20580;-77
2023/12/01 06:32:41;;;;;;;11.52;4.55;;;17.90;99.90;;;;;;5005554;28;20045;-78
2023/12/01 06:35:11;;;;;;;16.60;7.30;;;17.90;99.90;;;;;;5006211;28;20145;-78
2023/12/01 06:37:39;;;;;;;7.88;3.95;;;18.10;99.90;;;;;;5005654;28;20144;-78
2023/12/01 06:40:11;;;;;;;10.43;6.53;;;18.20;99.90;;;;;;5002881;28;20057;-78
2023/12/01 06:42:42;;;;;;;12.43;6.40;;;18.20;99.90;;;;;;5005264;28;20052;-78
2023/12/01 06:45:11;;;;;;;12.82;5.03;;;18.30;99.90;;;;;;5007964;28;20039;-77
2023/12/01 06:47:41;;;;;;;13.60;5.85;;;18.50;99.90;;;;;;4990471;28;20126;-77
2023/12/01 06:50:11;;;;;;;13.77;6.05;;;18.50;99.90;;;;;;5006141;28;20046;-76
2023/12/01 06:52:38;;;;;;;11.20;5.55;;;18.70;99.90;;;;;;4989259;28;20491;-79
2023/12/01 06:55:08;;;;;;;12.00;5.35;;;18.70;99.90;;;;;;5003171;28;20042;-77
2023/12/01 06:57:38;;;;;;;10.57;4.50;;;18.70;99.90;;;;;;4998472;28;20038;-78
2023/12/01 07:00:08;;;;;;;9.77;5.38;;;18.70;99.90;;;;;;5002494;28;20046;-80
2023/12/01 07:02:38;;;;;;;9.73;5.20;;;18.60;99.90;;;;;;5001646;28;20061;-77
2023/12/01 07:05:19;;;;;;;8.82;4.03;;;18.70;99.90;;;;;;5005961;28;20046;-79
2023/12/01 07:07:47;;;;;;;11.68;5.10;;;18.60;99.90;;;;;;5001824;28;20048;-77
2023/12/01 07:10:15;;;;;;;12.50;4.38;;;18.60;99.90;;;;;;5000577;28;20042;-77
2023/12/01 07:12:43;;;;;;;16.85;6.95;;;18.70;99.90;;;;;;5002629;28;20046;-80
2023/12/01 07:15:11;;;;;;;14.48;5.25;;;18.70;99.90;;;;;;5001829;28;20125;-80
2023/12/01 07:17:39;;;;;;;13.05;5.50;;;18.80;99.90;;;;;;5000237;28;20068;-77
2023/12/01 07:20:14;;;;;;;12.23;4.75;;;18.90;99.90;;;;;;5002454;28;20093;-79
2023/12/01 07:22:43;;;;;;;9.73;3.70;;;18.90;99.90;;;;;;5006459;28;20042;-79
2023/12/01 07:25:21;;;;;;;10.18;4.32;;;19.00;99.90;;;;;;5002737;28;20049;-77
2023/12/01 07:27:49;;;;;;;12.43;4.40;;;19.00;99.90;;;;;;5010270;28;20038;-76
2023/12/01 07:30:18;;;;;;;11.50;4.35;;;19.20;99.90;;;;;;4984695;28;20038;-77
2023/12/01 07:32:46;;;;;;;9.85;3.80;;;19.20;99.90;;;;;;5006493;28;20045;-78
2023/12/01 07:35:16;;;;;;;12.55;3.75;;;19.40;99.90;;;;;;5004463;28;20056;-79
2023/12/01 07:37:51;;;;;;;8.60;4.20;;;19.40;99.90;;;;;;5005759;28;20049;-80
2023/12/01 07:40:21;;;;;;;10.07;3.40;;;19.40;95.40;;;;;;5009587;28;20037;-80
2023/12/01 07:42:50;;;;;;;10.85;4.80;;;19.50;89.20;;;;;;5002855;28;20034;-77
2023/12/01 07:45:19;;;;;;;11.48;3.70;;;19.50;84.00;;;;;;5002563;28;20059;-79
2023/12/01 07:47:47;;;;;;;13.20;4.28;;;19.60;60.70;;;;;;5002553;28;20038;-78
2023/12/01 07:50:16;;;;;;;13.27;4.90;;;19.70;46.70;;;;;;4982233;28;20525;-78
2023/12/01 07:52:44;;;;;;;10.70;5.45;;;19.60;37.40;;;;;;5002283;28;20309;-78
2023/12/01 07:55:11;;;;;;;11.43;4.75;;;19.60;35.40;;;;;;4982631;28;20077;-78
2023/12/01 07:57:40;;;;;;;11.25;4.82;;;19.60;28.60;;;;;;5003033;28;20042;-77
2023/12/01 08:00:14;;;;;;;9.60;4.50;;;19.70;24.90;;;;;;5001466;28;20041;-80
2023/12/01 08:02:41;;;;;;;10.18;3.85;;;19.70;18.00;;;;;;5004002;28;20126;-79
2023/12/01 08:05:13;;;;;;;12.98;4.32;;;19.80;11.60;;;;;;5005364;28;20042;-78
2023/12/01 08:07:43;;;;;;;11.25;5.75;;;19.90;14.50;;;;;;5003307;28;20065;-78
2023/12/01 08:10:14;;;;;;;11.40;4.32;;;19.90;1.00;;;;;;5003420;28;20042;-79
2023/12/01 08:12:43;;;;;;;10.15;4.28;;;20.00;1.00;;;;;;5002559;28;20446;-78
2023/12/01 08:15:11;;;;;;;11.50;5.22;;;20.00;1.00;;;;;;5003355;28;20058;-77
2023/12/01 08:17:39;;;;;;;10.38;4.75;;;20.00;1.00;;;;;;5002661;28;20062;-77
2023/12/01 08:20:08;;;;;;;8.52;3.80;;;19.90;1.00;;;;;;5002568;28;20049;-79
2023/12/01 08:22:37;;;;;;;9.00;3.80;;;20.00;1.00;;;;;;5002714;28;20639;-79
2023/12/01 08:25:08;;;;;;;9.73;4.30;;;19.90;1.00;;;;;;5005026;28;20121;-79
2023/12/01 08:27:36;;;;;;;13.43;4.28;;;20.00;1.00;;;;;;4983657;28;20050;-79
2023/12/01 08:30:04;;;;;;;6.88;3.42;;;20.20;1.00;;;;;;4986776;28;20056;-77
2023/12/01 08:32:32;;;;;;;8.85;4.53;;;20.30;1.00;;;;;;5008921;28;20046;-78
2023/12/01 08:35:00;;;;;;;11.38;5.18;;;20.20;1.00;;;;;;4995624;28;20047;-80
2023/12/01 08:37:28;;;;;;;11.45;5.35;;;20.30;1.00;;;;;;5010697;28;20137;-79
2023/12/01 08:39:55;;;;;;;12.10;6.28;;;20.20;1.00;;;;;;5004211;28;20046;-80
2023/12/01 08:42:25;;;;;;;11.90;4.75;;;20.10;1.00;;;;;;5003028;28;20074;-77
2023/12/01 08:44:54;;;;;;;9.73;3.55;;;20.10;1.00;;;;;;4986243;28;20039;-78
2023/12/01 08:47:22;;;;;;;8.95;2.97;;;20.20;1.00;;;;;;5004778;28;20140;-78
2023/12/01 08:49:50;;;;;;;9.80;3.10;;;20.20;1.00;;;;;;5004568;28;20070;-77
2023/12/01 08:52:18;;;;;;;8.48;2.55;;;20.20;1.00;;;;;;4987769;28;20070;-79
2023/12/01 08:54:46;;;;;;;10.82;3.50;;;20.20;1.00;;;;;;5015051;28;20052;-77
2023/12/01 08:57:13;;;;;;;9.20;3.38;;;20.10;1.00;;;;;;5016375;28;20145;-79
2023/12/01 08:59:43;;;;;;;11.80;3.78;;;20.10;1.00;;;;;;5014333;28;20035;-78
2023/12/01 09:02:11;;;;;;;8.13;3.50;;;20.20;1.00;;;;;;5011451;28;20045;-79
2023/12/01 09:04:38;;;;;;;9.00;3.85;;;20.10;1.00;;;;;;5011756;28;20026;-78
2023/12/01 09:07:06;;;;;;;10.63;3.00;;;20.20;1.00;;;;;;5011625;28;20109;-77
2023/12/01 09:09:34;;;;;;;9.45;3.55;;;20.30;1.00;;;;;;5004273;28;20398;-79
2023/12/01 09:12:01;;;;;;;10.13;3.92;;;20.30;1.00;;;;;;5002794;28;20050;-79
2023/12/01 09:14:29;;;;;;;7.90;2.75;;;20.30;1.00;;;;;;5003235;28;20421;-77
2023/12/01 09:16:58;;;;;;;6.55;3.15;;;20.30;1.00;;;;;;4999782;28;20053;-77
2023/12/01 09:19:25;;;;;;;11.30;3.17;;;20.30;1.00;;;;;;5002745;28;20065;-78
2023/12/01 09:21:53;;;;;;;7.85;4.00;;;20.20;1.00;;;;;;5000556;28;20557;-78
2023/12/01 09:24:21;;;;;;;7.78;3.92;;;20.20;1.00;;;;;;5000485;28;20490;-79
2023/12/01 09:26:49;;;;;;;10.50;3.83;;;20.20;1.00;;;;;;5002659;28;20050;-79
2023/12/01 09:29:18;;;;;;;8.35;3.55;;;20.20;1.00;;;;;;4999743;28;20050;-79
2023/12/01 09:31:46;;;;;;;10.10;4.15;;;20.20;1.00;;;;;;4981640;28;20494;-78
2023/12/01 09:34:15;;;;;;;8.20;4.20;;;20.30;1.00;;;;;;5000135;28;20037;-78
2023/12/01 09:36:44;;;;;;;11.20;3.75;;;20.30;1.00;;;;;;5001289;28;20042;-78
2023/12/01 09:39:11;;;;;;;13.80;7.70;;;20.30;1.00;;;;;;4999543;28;20058;-79
2023/12/01 09:41:40;;;;;;;9.32;4.40;;;20.40;1.00;;;;;;5000753;28;20045;-79
2023/12/01 09:44:08;;;;;;;9.30;4.05;;;20.60;1.00;;;;;;4997865;28;20038;-77
2023/12/01 09:46:39;;;;;;;10.40;3.60;;;20.60;1.00;;;;;;5002583;28;20038;-79
2023/12/01 09:49:07;;;;;;;9.27;3.50;;;20.70;1.00;;;;;;4991336;28;20046;-78
2023/12/01 09:51:37;;;;;;;7.25;4.15;;;20.70;1.00;;;;;;5009506;28;20045;-77
2023/12/01 09:54:05;;;;;;;13.57;4.18;;;20.80;1.00;;;;;;5006801;28;20046;-78
2023/12/01 09:56:33;;;;;;;10.10;2.80;;;20.80;1.00;;;;;;5006713;28;20054;-80
2023/12/01 09:59:02;;;;;;;9.15;3.00;;;20.90;1.00;;;;;;5006947;28;20045;-78
2023/12/01 10:01:30;;;;;;;10.48;3.20;;;21.00;1.00;;;;;;5006573;28;20038;-79
2023/12/01 10:03:58;;;;;;;12.70;3.08;;;21.10;1.00;;;;;;5005621;28;20046;-78
2023/12/01 10:06:26;;;;;;;8.07;3.47;;;21.10;1.00;;;;;;5008144;28;20037;-81
2023/12/01 10:08:56;;;;;;;7.88;2.72;;;21.10;1.00;;;;;;5007270;28;20052;-80
2023/12/01 10:11:25;;;;;;;7.75;2.63;;;21.10;1.00;;;;;;5008540;28;20494;-79
2023/12/01 10:13:53;;;;;;;8.23;2.65;;;21.00;1.00;;;;;;4994318;28;20068;-78
2023/12/01 10:16:22;;;;;;;8.38;3.33;;;21.00;1.00;;;;;;4990480;28;20271;-79
2023/12/01 10:19:00;;;;;;;10.13;2.85;;;20.90;1.00;;;;;;4991507;28;20459;-78
2023/12/01 10:21:43;;;;;;;9.27;2.72;;;20.90;1.00;;;;;;4991112;28;20058;-78
2023/12/01 10:24:21;;;;;;;7.80;3.25;;;20.90;1.00;;;;;;4990766;28;20047;-78
2023/12/01 10:26:51;;;;;;;7.57;3.10;;;20.80;1.00;;;;;;4988190;28;20042;-77
2023/12/01 10:29:28;;;;;;;11.15;3.58;;;20.80;1.00;;;;;;4986646;28;20054;-78
2023/12/01 10:31:57;;;;;;;15.48;5.50;;;20.80;1.00;;;;;;4999119;28;20051;-78
2023/12/01 10:34:25;;;;;;;10.52;4.07;;;20.90;1.00;;;;;;4987022;28;20469;-77
2023/12/01 10:36:53;;;;;;;10.25;3.53;;;20.80;1.00;;;;;;4983233;28;20047;-80
2023/12/01 10:39:29;;;;;;;9.32;2.90;;;20.90;1.00;;;;;;4985759;28;20070;-78
2023/12/01 10:41:56;;;;;;;;;;;21.00;1.00;;;;;;4988154;28;20105;-79
2023/12/01 10:44:25;;;;;;;7.45;2.95;;;21.00;1.00;;;;;;4986800;28;19921;-77
2023/12/01 10:46:54;;;;;;;7.18;3.28;;;21.00;1.00;;;;;;4987217;28;20046;-78
2023/12/01 10:49:23;;;;;;;11.15;3.45;;;21.00;1.00;;;;;;4986562;28;20529;-78
2023/12/01 10:51:52;;;;;;;9.32;3.90;;;21.00;1.00;;;;;;4986963;28;20050;-78
2023/12/01 10:54:23;;;;;;;9.60;5.53;;;21.00;1.00;;;;;;4985886;28;20047;-79
2023/12/01 10:57:02;;;;;;;11.60;4.50;;;21.00;1.00;;;;;;4986896;28;20053;-77
2023/12/01 10:59:32;;;;;;;9.40;3.90;;;20.90;1.00;;;;;;4987429;28;20466;-77
2023/12/01 11:02:02;;;;;;;12.77;3.70;;;21.00;1.00;;;;;;4985311;28;20043;-77
2023/12/01 11:04:32;;;;;;;25.23;15.10;;;21.00;1.00;;;;;;4984643;28;20069;-79
2023/12/01 11:07:17;;;;;;;11.13;3.35;;;21.00;1.00;;;;;;4983748;28;20075;-76
2023/12/01 11:09:59;;;;;;;13.27;5.75;;;21.00;1.00;;;;;;4984683;28;20045;-77
2023/12/01 11:12:40;;;;;;;12.60;4.05;;;21.00;1.00;;;;;;4984309;28;20128;-77
2023/12/01 11:15:16;;;;;;;12.43;3.95;;;21.10;1.00;;;;;;4980996;28;20070;-79
2023/12/01 11:17:44;;;;;;;11.75;3.80;;;21.20;1.00;;;;;;5001731;28;20506;-79
2023/12/01 11:20:33;;;;;;;9.95;3.80;;;21.20;1.00;;;;;;5002605;28;20043;-78
2023/12/01 11:23:06;;;;;;;10.30;4.13;;;21.10;1.00;;;;;;4999851;28;20096;-79
2023/12/01 11:25:46;;;;;;;12.30;3.60;;;21.20;1.00;;;;;;5002569;28;20053;-78
2023/12/01 11:28:27;;;;;;;16.70;4.38;;;21.20;1.00;;;;;;5001622;28;20050;-77
2023/12/01 11:31:07;;;;;;;10.13;3.88;;;21.20;1.00;;;;;;5002588;28;20049;-80
2023/12/01 11:33:37;;;;;;;18.15;7.72;;;21.20;1.00;;;;;;5002448;28;20049;-77
2023/12/01 11:36:25;;;;;;;16.60;7.30;;;21.30;1.00;;;;;;5001371;28;20070;-76
2023/12/01 11:39:16;;;;;;;11.20;4.82;;;21.30;1.00;;;;;;5000930;28;20149;-78
2023/12/01 11:41:56;;;;;;;14.15;4.10;;;21.20;1.00;;;;;;5003329;28;20116;-77
2023/12/01 11:44:29;;;;;;;7.85;3.63;;;21.20;1.00;;;;;;5001489;28;20604;-77
2023/12/01 11:46:58;;;;;;;11.02;4.03;;;21.30;1.00;;;;;;5003096;28;20042;-77
2023/12/01 11:49:26;;;;;;;9.73;3.80;;;21.30;1.00;;;;;;5000692;28;20430;-78
2023/12/01 11:51:54;;;;;;;12.65;3.42;;;21.40;1.00;;;;;;4984623;28;20437;-77
2023/12/01 11:54:22;;;;;;;9.73;3.47;;;21.40;1.00;;;;;;5007735;28;20046;-77
2023/12/01 11:56:53;;;;;;;9.07;3.10;;;21.40;1.00;;;;;;5002442;28;20047;-76
2023/12/01 11:59:21;;;;;;;13.00;3.10;;;21.40;1.00;;;;;;5001862;28;20481;-78
2023/12/01 12:01:49;;;;;;;10.13;3.30;;;21.50;1.00;;;;;;5003100;28;20378;-76
2023/12/01 12:04:16;;;;;;;9.82;3.70;;;21.50;1.00;;;;;;5009725;28;20509;-79
2023/12/01 12:06:45;;;;;;;15.32;3.30;;;21.60;1.00;;;;;;5002169;28;20514;-77
2023/12/01 12:09:17;;;;;;;11.40;5.05;;;21.70;1.00;;;;;;5001692;28;20520;-79
2023/12/01 12:11:46;;;;;;;13.40;5.10;;;21.80;1.00;;;;;;5000276;28;20042;-78
2023/12/01 12:14:15;;;;;;;21.55;9.52;;;21.80;1.00;;;;;;5003027;28;20038;-79
2023/12/01 12:16:44;;;;;;;11.15;2.78;;;21.90;1.00;;;;;;5002785;28;20420;-78
2023/12/01 12:19:11;;;;;;;14.23;3.30;;;22.00;1.00;;;;;;5007920;28;20049;-80
2023/12/01 12:21:40;;;;;;;12.90;4.13;;;21.90;1.00;;;;;;5009240;28;20045;-79
2023/12/01 12:24:08;;;;;;;12.75;3.80;;;21.90;1.00;;;;;;5006775;28;20072;-77
2023/12/01 12:26:36;;;;;;;15.18;4.45;;;21.80;1.00;;;;;;5002424;28;20092;-79
2023/12/01 12:29:05;;;;;;;12.82;3.28;;;21.80;1.00;;;;;;5002057;28;20049;-79
2023/12/01 12:31:37;;;;;;;10.48;3.10;;;21.80;1.00;;;;;;5002019;28;20367;-79
2023/12/01 12:34:06;;;;;;;15.48;3.13;;;21.70;1.00;;;;;;5006276;28;20115;-79
2023/12/01 12:36:36;;;;;;;12.93;2.95;;;21.70;1.00;;;;;;5002269;28;20100;-79
2023/12/01 12:39:06;;;;;;;8.13;3.33;;;21.70;1.00;;;;;;5001757;28;20034;-79
2023/12/01 12:41:35;;;;;;;9.80;3.55;;;21.60;1.00;;;;;;5003659;28;20049;-78
2023/12/01 12:44:04;;;;;;;11.32;3.55;;;21.50;1.00;;;;;;5005567;28;20038;-80
2023/12/01 12:46:35;;;;;;;16.33;3.55;;;21.50;1.00;;;;;;5006265;28;20437;-80
2023/12/01 12:49:04;;;;;;;12.32;3.13;;;21.50;1.00;;;;;;5007286;28;20094;-78
2023/12/01 12:51:32;;;;;;;12.40;2.50;;;21.50;1.00;;;;;;5007114;28;20061;-78
2023/12/01 12:54:00;;;;;;;8.88;2.50;;;21.40;1.00;;;;;;5007701;28;20102;-78
2023/12/01 12:56:29;;;;;;;9.10;2.83;;;21.30;1.00;;;;;;5011017;28;20041;-79
2023/12/01 12:58:58;;;;;;;9.75;3.28;;;21.30;1.00;;;;;;5001673;28;20546;-79
2023/12/01 13:01:26;;;;;;;12.10;2.72;;;21.20;1.00;;;;;;5006418;28;20048;-76